Terminal Aerodrome Forecast
Issued by NWS Boston, MA

Home | Current Version | Previous Version | Text Only | Print | Product List | Glossary On
Versions: 1 2 3 4 5 6 7 8 9 10 11 12 13 14 15 16 17 18 19 20 21
000
FTUS41 KBOX 260830 AAA
TAFBDL
TAF AMD
KBDL 260830Z 2609/2712 30019G30KT P6SM VCSH FEW040 BKN060
     FM261000 28009KT P6SM SCT060
     FM261800 29012KT P6SM VCSH BKN060
     FM262300 30010KT P6SM SCT250
     FM270600 29006KT P6SM BKN045=

USA.gov is the U.S. government's official web portal to all federal, state and local government web resources and services.